Impacts METAR Board
IDs:

KCNW - Waco/Texas State Tec, TX, US

Updated at: 0300 UTC 06 Dec 2019
Potential Impact None Slight Moderate High
Time 05/15Z 05/16Z 05/17Z 05/18Z 05/19Z 05/20Z 05/21Z 05/22Z 05/23Z 06/00Z 06/01Z 06/02Z 06/03Z
Temp54 59 64 66 68 70 73 70 68 68 66 66 64
Dewpt48 52 55 59 59 59 59 59 59 59 59 59 59
Altim30.04 30.05 30.03 29.99 29.96 29.92 29.90 29.90 29.90 29.90 29.91 29.91 29.93
VIS10 10 10 10 10 10 10 10 10 10 10 10 10
CIG-- -- -- -- 16 20 -- -- -- -- -- -- --
CoverSKCSKCSKCSCTBKNBKNFEWSKCSKCSKCSKCSKCSKC
FltCatVFRVFRVFRVFRMVFRMVFRVFRVFRVFRVFRVFRVFRVFR
WX--------------------------
WDir160170160170190190180190190190170170170
WSpd6 10 12 15 13 15 13 14 14 10 10 10 10
WGst-- 20 20 20 20 25 22 20 20 -- -- -- --
Raw hourly METARs
KCNW 051445Z 16006KT 10SM SKC 12/09 A3004
KCNW 051555Z 17010G20KT 10SM SKC 15/11 A3005
KCNW 051655Z 16012G20KT 10SM SKC 18/13 A3003
KCNW 051755Z 17015G20KT 10SM SCT044 19/15 A2999
KCNW 051855Z 19013G20KT 10SM BKN016 20/15 A2996
KCNW 051955Z 19015G25KT 10SM BKN020 21/15 A2992
KCNW 052055Z 18013G22KT 10SM FEW020 23/15 A2990
KCNW 052155Z 19014G20KT 10SM SKC 21/15 A2990
KCNW 052255Z 19014G20KT 10SM SKC 20/15 A2990
KCNW 052355Z 19010KT 10SM SKC 20/15 A2990
KCNW 060055Z 17010KT 10SM SKC 19/15 A2991
KCNW 060155Z 17010KT 10SM SKC 19/15 A2991
KCNW 060255Z 17010KT 10SM SKC 18/15 A2993